Time;durP1;ratioP1;P1;durP2;ratioP2;P2;SDS_P1;SDS_P2;PMS_P1;PMS_P2;Temp;Humidity;BMP_temperature;BMP_pressure;BME280_temperature;BME280_humidity;BME280_pressure;Samples;Min_cycle;Max_cycle;Signal;HPM_P1;HPM_P2
2022/07/06 00:00:23;;;;;;;6.18;1.55;;;;;;;16.95;48.93;102614.28;5162468;28;20419;-39
2022/07/06 00:02:56;;;;;;;5.22;1.48;;;;;;;16.90;49.02;102601.34;5163308;28;20420;-39
2022/07/06 00:05:30;;;;;;;6.87;1.50;;;;;;;16.79;49.04;102597.06;5163017;28;20420;-41
2022/07/06 00:08:03;;;;;;;5.28;1.13;;;;;;;16.81;49.24;102596.91;5166885;28;20432;-53
2022/07/06 00:10:35;;;;;;;5.97;1.65;;;;;;;16.79;49.36;102609.56;5165481;28;20495;-41
2022/07/06 00:13:08;;;;;;;3.63;1.30;;;;;;;16.78;49.39;102613.22;5155815;28;20422;-40
2022/07/06 00:15:41;;;;;;;5.13;1.02;;;;;;;16.71;49.31;102612.09;5145832;28;20760;-40
2022/07/06 00:18:14;;;;;;;3.03;0.90;;;;;;;16.61;49.38;102590.81;5147814;28;20730;-40
2022/07/06 00:20:48;;;;;;;5.82;1.88;;;;;;;16.69;49.58;102612.25;5146654;28;20412;-40
2022/07/06 00:23:21;;;;;;;4.35;1.17;;;;;;;16.33;49.41;102560.59;5150772;28;20441;-42
2022/07/06 00:25:53;;;;;;;3.85;1.30;;;;;;;16.62;49.78;102619.16;5145701;28;20417;-41
2022/07/06 00:28:26;;;;;;;5.40;1.48;;;;;;;16.58;49.75;102613.25;5152229;28;20791;-40
2022/07/06 00:30:59;;;;;;;5.20;1.00;;;;;;;16.59;49.73;102620.28;5148731;28;20429;-39
2022/07/06 00:33:31;;;;;;;3.50;1.50;;;;;;;16.57;49.80;102622.28;5147785;28;20467;-39
2022/07/06 00:36:06;;;;;;;5.63;1.73;;;;;;;16.45;49.81;102601.25;5140361;28;20442;-41
2022/07/06 00:38:39;;;;;;;1.65;1.10;;;;;;;16.54;49.94;102619.88;5140630;28;20433;-39
2022/07/06 00:41:13;;;;;;;4.40;1.40;;;;;;;16.30;49.80;102587.53;5132330;28;20418;-42
2022/07/06 00:43:50;;;;;;;2.63;1.02;;;;;;;16.49;49.97;102611.47;5138559;28;20418;-43
2022/07/06 00:46:28;;;;;;;4.95;1.27;;;;;;;16.45;50.01;102604.75;5137734;28;20442;-38
2022/07/06 00:49:01;;;;;;;8.00;1.70;;;;;;;16.37;50.11;102588.63;5143082;28;20570;-39
2022/07/06 00:51:38;;;;;;;6.95;1.27;;;;;;;16.49;50.09;102600.81;5142959;28;20912;-48
2022/07/06 00:54:11;;;;;;;6.10;1.17;;;;;;;16.46;50.09;102598.44;5144003;28;20432;-43
2022/07/06 00:56:43;;;;;;;3.63;0.88;;;;;;;16.53;50.13;102610.19;5141249;28;20435;-39
2022/07/06 00:59:16;;;;;;;5.88;1.30;;;;;;;16.44;50.23;102580.88;5143896;28;20406;-39
2022/07/06 01:01:49;;;;;;;1.92;0.90;;;;;;;16.53;50.17;102596.84;5146391;28;20437;-41
2022/07/06 01:04:22;;;;;;;6.13;1.20;;;;;;;16.39;50.22;102564.50;5143375;28;20502;-39
2022/07/06 01:06:56;;;;;;;1.20;0.88;;;;;;;16.65;50.31;102608.19;5139827;28;20772;-40
2022/07/06 01:09:29;;;;;;;2.92;1.10;;;;;;;16.68;50.18;102601.72;5143605;28;20437;-39
2022/07/06 01:12:02;;;;;;;3.08;0.93;;;;;;;16.71;50.14;102604.94;5142635;28;20528;-42
2022/07/06 01:14:36;;;;;;;5.65;1.38;;;;;;;16.72;50.37;102608.44;5160915;28;20433;-39
2022/07/06 01:17:09;;;;;;;5.50;1.17;;;;;;;16.78;50.25;102603.38;5160855;28;20724;-39
2022/07/06 01:19:42;;;;;;;4.60;1.05;;;;;;;16.80;50.26;102601.41;5163253;28;20422;-41
2022/07/06 01:22:16;;;;;;;5.97;1.63;;;;;;;16.72;50.24;102589.75;5164904;28;20415;-41
2022/07/06 01:24:49;;;;;;;5.18;1.02;;;;;;;16.86;50.11;102604.47;5166663;28;20506;-39
2022/07/06 01:27:22;;;;;;;6.93;2.53;;;;;;;16.83;50.23;102602.94;5164396;28;20458;-40
2022/07/06 01:29:54;;;;;;;4.85;1.45;;;;;;;16.92;50.28;102603.91;5160925;28;20445;-45
2022/07/06 01:32:27;;;;;;;5.90;1.30;;;;;;;16.91;50.29;102596.84;5166431;28;20420;-42
2022/07/06 01:35:00;;;;;;;5.18;1.50;;;;;;;16.99;50.36;102610.31;5166826;28;20420;-40
2022/07/06 01:37:35;;;;;;;3.70;1.17;;;;;;;16.96;50.04;102592.75;5164018;28;20837;-38
2022/07/06 01:40:10;;;;;;;3.50;1.35;;;;;;;17.02;50.29;102594.00;5167704;28;20967;-39
2022/07/06 01:42:43;;;;;;;4.10;1.40;;;;;;;17.05;50.20;102594.53;5164743;28;20494;-40
2022/07/06 01:45:16;;;;;;;6.32;0.90;;;;;;;17.05;50.27;102588.34;5168377;28;20836;-40
2022/07/06 01:47:48;;;;;;;7.88;1.30;;;;;;;17.11;50.28;102592.25;5168113;28;20519;-43
2022/07/06 01:50:21;;;;;;;4.75;1.30;;;;;;;17.11;50.26;102592.25;5170527;28;20417;-40
2022/07/06 01:52:55;;;;;;;3.22;1.33;;;;;;;17.05;50.20;102583.03;5165470;28;20901;-42
2022/07/06 01:55:28;;;;;;;5.60;1.30;;;;;;;17.13;50.23;102595.63;5165443;28;20422;-41
2022/07/06 01:58:03;;;;;;;2.42;0.90;;;;;;;17.08;50.24;102592.56;5164365;28;20421;-39
2022/07/06 02:00:36;;;;;;;5.28;1.20;;;;;;;17.11;50.35;102602.94;5169979;28;20489;-44
2022/07/06 02:03:08;;;;;;;3.78;1.17;;;;;;;17.11;50.24;102589.59;5166041;28;20440;-38
2022/07/06 02:05:41;;;;;;;3.30;1.10;;;;;;;17.07;50.42;102593.56;5165500;28;20873;-41
2022/07/06 02:08:15;;;;;;;5.68;1.08;;;;;;;17.08;50.38;102592.56;5169599;28;20428;-42
2022/07/06 02:10:48;;;;;;;9.05;0.98;;;;;;;17.07;50.22;102596.22;5167777;28;20416;-41
2022/07/06 02:13:21;;;;;;;6.18;1.10;;;;;;;17.04;50.29;102598.19;5160030;28;20428;-39
2022/07/06 02:15:54;;;;;;;2.37;0.73;;;;;;;16.99;50.35;102595.13;5145578;28;20468;-43
2022/07/06 02:18:26;;;;;;;4.80;1.13;;;;;;;17.00;50.34;102588.81;5149497;28;20416;-39
2022/07/06 02:20:59;;;;;;;4.65;1.50;;;;;;;16.98;50.27;102592.63;5147971;28;21105;-38
2022/07/06 02:23:33;;;;;;;4.82;1.05;;;;;;;16.95;50.40;102593.75;5146717;28;20415;-41
2022/07/06 02:26:06;;;;;;;3.60;0.93;;;;;;;16.94;50.47;102588.56;5146567;28;20418;-40
2022/07/06 02:28:40;;;;;;;5.95;1.30;;;;;;;16.87;50.43;102592.81;5149520;28;20476;-39
2022/07/06 02:31:13;;;;;;;1.63;0.80;;;;;;;16.88;50.51;102582.00;5146157;28;20552;-46
2022/07/06 02:33:46;;;;;;;4.03;0.90;;;;;;;16.84;50.60;102577.94;5145484;28;20414;-39
2022/07/06 02:36:19;;;;;;;3.40;1.00;;;;;;;16.86;50.56;102589.31;5146796;28;20906;-40
2022/07/06 02:38:53;;;;;;;4.15;1.10;;;;;;;16.89;50.68;102582.84;5149720;28;20434;-39
2022/07/06 02:41:26;;;;;;;1.90;0.88;;;;;;;16.92;50.62;102583.38;5140333;28;20462;-40
2022/07/06 02:43:58;;;;;;;3.35;0.95;;;;;;;16.92;50.78;102583.38;5145075;28;20961;-40
2022/07/06 02:46:31;;;;;;;3.60;1.20;;;;;;;16.95;50.59;102584.91;5155775;28;20421;-40
2022/07/06 02:49:04;;;;;;;7.45;0.90;;;;;;;17.04;50.52;102592.88;5150466;28;20469;-47
2022/07/06 02:51:36;;;;;;;2.55;0.80;;;;;;;17.02;50.47;102586.00;5146677;28;21660;-50
2022/07/06 02:54:11;;;;;;;6.03;1.10;;;;;;;17.09;50.54;102595.06;5143522;28;20423;-40
2022/07/06 02:56:44;;;;;;;1.58;0.70;;;;;;;17.13;50.49;102592.97;5144497;28;20896;-39
2022/07/06 02:59:17;;;;;;;3.80;0.98;;;;;;;17.16;50.41;102595.34;5146225;28;20513;-38
2022/07/06 03:01:50;;;;;;;4.00;1.08;;;;;;;17.19;50.40;102600.38;5144414;28;20430;-47
2022/07/06 03:04:22;;;;;;;3.97;0.77;;;;;;;17.09;50.38;102575.53;5145610;28;20791;-43
2022/07/06 03:06:55;;;;;;;3.00;0.80;;;;;;;17.24;50.43;102587.38;5145258;28;20442;-39
2022/07/06 03:09:29;;;;;;;3.42;0.73;;;;;;;17.29;50.39;102590.47;5150187;28;20497;-39
2022/07/06 03:12:02;;;;;;;3.78;0.98;;;;;;;17.26;50.22;102585.41;5147059;28;20802;-39
2022/07/06 03:14:35;;;;;;;4.55;1.00;;;;;;;17.36;50.32;102594.19;5164407;28;20431;-41
2022/07/06 03:17:08;;;;;;;3.60;1.27;;;;;;;17.39;50.40;102593.88;5164116;28;20425;-40
2022/07/06 03:19:41;;;;;;;4.00;1.10;;;;;;;17.41;50.31;102589.25;5164279;28;20435;-40
2022/07/06 03:22:13;;;;;;;5.03;1.10;;;;;;;17.39;50.21;102580.53;5163820;28;20789;-39
2022/07/06 03:24:48;;;;;;;3.30;1.00;;;;;;;17.44;50.35;102578.25;5166630;28;20419;-47
2022/07/06 03:27:21;;;;;;;3.42;0.93;;;;;;;17.49;50.34;102585.81;5167893;28;20428;-40
2022/07/06 03:29:53;;;;;;;4.35;1.00;;;;;;;17.50;50.34;102588.34;5160800;28;20768;-44
2022/07/06 03:32:26;;;;;;;2.58;0.73;;;;;;;17.54;50.38;102588.88;5164285;28;20431;-39
2022/07/06 03:34:59;;;;;;;2.47;0.98;;;;;;;17.57;50.20;102593.91;5162721;28;20446;-40
2022/07/06 03:37:31;;;;;;;6.50;1.30;;;;;;;17.59;50.22;102593.72;5164593;28;20443;-39
2022/07/06 03:40:07;;;;;;;3.92;0.98;;;;;;;17.60;50.25;102598.09;5162952;28;20459;-39
2022/07/06 03:42:40;;;;;;;2.28;0.90;;;;;;;17.60;50.27;102598.09;5165037;28;20567;-40
2022/07/06 03:45:12;;;;;;;5.70;1.10;;;;;;;17.54;50.23;102578.19;5163251;28;20432;-39
2022/07/06 03:47:45;;;;;;;6.63;1.40;;;;;;;17.63;50.45;102598.63;5177323;28;20858;-40
2022/07/06 03:50:18;;;;;;;4.83;1.10;;;;;;;17.64;50.43;102586.94;5165062;28;20540;-38
2022/07/06 03:52:51;;;;;;;2.90;1.02;;;;;;;17.61;50.42;102579.22;5178470;28;20436;-39
2022/07/06 03:55:25;;;;;;;6.47;1.23;;;;;;;17.67;50.62;102588.47;5161746;28;20769;-38
2022/07/06 03:57:57;;;;;;;7.32;0.98;;;;;;;17.66;50.68;102576.13;5164437;28;20848;-39
2022/07/06 04:00:30;;;;;;;2.00;0.80;;;;;;;17.75;50.67;102583.22;5161697;28;20440;-44
2022/07/06 04:03:03;;;;;;;5.78;1.38;;;;;;;17.79;50.59;102584.59;5163686;28;20912;-47
2022/07/06 04:05:35;;;;;;;6.95;1.30;;;;;;;17.85;50.56;102591.16;5165169;28;20919;-41
2022/07/06 04:08:08;;;;;;;3.65;1.10;;;;;;;17.92;50.52;102593.03;5164975;28;20427;-39
2022/07/06 04:10:43;;;;;;;4.07;1.60;;;;;;;17.94;50.58;102600.94;5167534;28;20451;-39
2022/07/06 04:13:15;;;;;;;2.87;1.13;;;;;;;17.95;50.58;102592.75;5163933;28;20421;-39
2022/07/06 04:15:48;;;;;;;5.10;1.23;;;;;;;17.93;50.60;102584.06;5153947;28;20446;-38
2022/07/06 04:18:21;;;;;;;7.28;1.25;;;;;;;18.02;50.61;102597.47;5165809;28;20432;-42
2022/07/06 04:20:53;;;;;;;3.70;1.10;;;;;;;17.97;50.78;102597.94;5159145;28;20423;-39
2022/07/06 04:23:26;;;;;;;4.43;1.33;;;;;;;17.97;50.55;102589.91;5173376;28;20416;-45
2022/07/06 04:26:00;;;;;;;3.92;1.40;;;;;;;18.07;50.60;102600.53;5178585;28;20415;-40
2022/07/06 04:28:33;;;;;;;4.18;1.30;;;;;;;17.81;50.71;102557.69;5182130;28;20415;-40
2022/07/06 04:31:06;;;;;;;4.30;0.90;;;;;;;18.12;50.67;102600.91;5174219;28;20420;-40
2022/07/06 04:33:38;;;;;;;5.10;1.23;;;;;;;18.17;50.68;102606.59;5175626;28;20459;-44
2022/07/06 04:36:11;;;;;;;5.95;1.33;;;;;;;18.14;50.54;102594.38;5175148;28;20434;-40
2022/07/06 04:38:44;;;;;;;4.15;1.35;;;;;;;18.27;50.43;102602.00;5175789;28;20573;-41
2022/07/06 04:41:18;;;;;;;5.07;1.10;;;;;;;18.30;50.13;102607.03;5172457;28;20421;-39
2022/07/06 04:43:51;;;;;;;4.25;0.93;;;;;;;18.35;50.34;102604.72;5180906;28;20833;-39
2022/07/06 04:46:24;;;;;;;5.40;1.80;;;;;;;18.31;50.37;102597.16;5181859;28;20411;-38
2022/07/06 04:48:57;;;;;;;4.60;1.00;;;;;;;18.42;50.25;102595.03;5174645;28;20956;-39
2022/07/06 04:51:29;;;;;;;5.77;1.27;;;;;;;18.47;50.18;102607.13;5172046;28;20764;-40
2022/07/06 04:54:04;;;;;;;4.75;1.17;;;;;;;18.54;50.15;102602.81;5175543;28;20429;-44
2022/07/06 04:56:38;;;;;;;3.95;1.30;;;;;;;18.23;50.07;102540.94;5180902;28;20426;-41
2022/07/06 04:59:11;;;;;;;5.18;1.20;;;;;;;18.61;49.95;102598.47;5187058;28;20788;-39
2022/07/06 05:01:44;;;;;;;5.97;1.30;;;;;;;18.55;49.75;102589.28;5179151;28;21018;-39
2022/07/06 05:04:18;;;;;;;5.50;1.15;;;;;;;18.66;49.93;102606.88;5173313;28;20448;-39
2022/07/06 05:06:50;;;;;;;7.80;1.35;;;;;;;18.73;49.62;102597.25;5174583;28;20474;-40
2022/07/06 05:09:23;;;;;;;4.38;1.58;;;;;;;18.79;49.60;102603.78;5167816;28;20400;-40
2022/07/06 05:11:57;;;;;;;6.13;1.58;;;;;;;18.93;49.36;102613.06;5172911;28;20919;-41
2022/07/06 05:14:30;;;;;;;4.65;1.10;;;;;;;19.46;48.75;102604.66;5157416;28;20449;-40
2022/07/06 05:17:02;;;;;;;7.32;1.48;;;;;;;21.06;47.19;102606.59;5148522;28;20430;-40
2022/07/06 05:19:35;;;;;;;6.97;0.90;;;;;;;22.79;45.11;102598.66;5151319;28;20422;-40
2022/07/06 05:22:08;;;;;;;3.37;1.00;;;;;;;24.13;43.69;102615.19;5154213;28;20910;-41
2022/07/06 05:24:40;;;;;;;1.88;0.80;;;;;;;25.65;41.99;102608.78;5149317;28;20522;-40
2022/07/06 05:27:15;;;;;;;2.63;0.60;;;;;;;27.20;40.24;102611.78;5154078;28;20413;-41
2022/07/06 05:29:47;;;;;;;2.00;0.60;;;;;;;28.55;38.47;102605.81;5156535;28;20551;-41
2022/07/06 05:32:20;;;;;;;1.73;0.50;;;;;;;29.63;37.24;102607.66;5149913;28;20823;-42
2022/07/06 05:34:53;;;;;;;3.17;0.57;;;;;;;29.65;36.84;102613.72;5151439;28;20430;-41
2022/07/06 05:37:26;;;;;;;2.47;0.88;;;;;;;29.74;36.50;102617.75;5145085;28;20701;-44
2022/07/06 05:39:58;;;;;;;5.25;0.90;;;;;;;30.24;35.81;102606.41;5154836;28;20541;-42
2022/07/06 05:42:32;;;;;;;3.17;0.70;;;;;;;30.60;35.20;102615.34;5160855;28;20425;-43
2022/07/06 05:45:06;;;;;;;2.80;0.63;;;;;;;30.53;34.87;102609.19;5130926;28;20555;-49
2022/07/06 05:50:29;;;;;;;3.13;0.60;;;;;;;30.61;34.26;102616.16;5159789;28;20444;-43
2022/07/06 05:53:04;;;;;;;1.80;0.73;;;;;;;31.22;33.34;102615.47;5154161;28;20793;-43
2022/07/06 05:55:36;;;;;;;4.15;0.70;;;;;;;31.64;32.79;102615.09;5147300;28;20517;-44
2022/07/06 05:58:10;;;;;;;4.13;0.80;;;;;;;32.00;32.06;102618.41;5140479;28;20438;-43
2022/07/06 06:00:44;;;;;;;2.85;0.50;;;;;;;32.28;31.49;102608.41;5138705;28;21113;-43
2022/07/06 06:03:17;;;;;;;1.50;0.40;;;;;;;32.09;31.63;102614.19;5143128;28;20505;-43
2022/07/06 06:05:50;;;;;;;1.08;0.40;;;;;;;32.65;31.02;102625.03;5131460;28;20427;-44
2022/07/06 06:08:23;;;;;;;1.65;0.57;;;;;;;33.09;30.46;102626.91;5139930;28;20831;-48
2022/07/06 06:10:55;;;;;;;1.90;0.40;;;;;;;33.83;29.60;102627.03;5138890;28;20435;-45
2022/07/06 06:13:30;;;;;;;1.50;0.45;;;;;;;34.29;29.21;102632.81;5138756;28;20512;-47
2022/07/06 06:16:03;;;;;;;2.77;0.80;;;;;;;35.02;28.21;102623.72;5143349;28;20517;-49
2022/07/06 06:18:35;;;;;;;3.17;0.40;;;;;;;35.52;27.77;102622.13;5144319;28;20505;-45
2022/07/06 06:21:08;;;;;;;3.30;0.80;;;;;;;36.06;27.30;102616.06;5140299;28;20430;-46
2022/07/06 06:23:41;;;;;;;1.77;0.30;;;;;;;36.07;27.08;102620.44;5150134;28;20428;-49
2022/07/06 06:26:14;;;;;;;1.02;0.32;;;;;;;35.88;26.86;102624.88;5150552;28;21044;-46
2022/07/06 06:28:49;;;;;;;2.70;0.32;;;;;;;36.20;26.91;102622.59;5140816;28;20458;-48
2022/07/06 06:31:22;;;;;;;3.80;0.60;;;;;;;36.77;26.24;102627.88;5141514;28;20425;-48
2022/07/06 06:33:54;;;;;;;1.50;0.38;;;;;;;37.34;25.53;102629.13;5145398;28;20432;-49
2022/07/06 06:36:27;;;;;;;4.05;0.40;;;;;;;37.83;25.36;102630.91;5142649;28;20484;-45
2022/07/06 06:39:01;;;;;;;3.05;0.40;;;;;;;38.15;24.88;102626.72;5143957;28;20526;-50
2022/07/06 06:41:34;;;;;;;1.42;0.38;;;;;;;38.35;24.70;102629.25;5152161;28;20428;-48
2022/07/06 06:44:08;;;;;;;1.98;0.30;;;;;;;38.28;24.35;102620.47;5156115;28;20421;-47
2022/07/06 06:46:41;;;;;;;3.50;0.60;;;;;;;37.92;24.67;102628.34;5153964;28;21821;-44
2022/07/06 06:49:14;;;;;;;3.25;0.43;;;;;;;37.36;24.91;102622.25;5153653;28;20417;-48
2022/07/06 06:51:47;;;;;;;1.48;0.43;;;;;;;37.04;24.99;102628.28;5158695;28;20512;-49
2022/07/06 06:54:20;;;;;;;2.63;0.43;;;;;;;37.32;24.68;102636.88;5153662;28;20772;-49
2022/07/06 06:56:53;;;;;;;3.67;0.60;;;;;;;37.79;24.31;102625.16;5140470;28;20740;-52
2022/07/06 06:59:27;;;;;;;1.50;0.60;;;;;;;38.16;24.05;102623.69;5144215;28;20418;-49
2022/07/06 07:01:59;;;;;;;1.17;0.45;;;;;;;38.38;23.98;102628.69;5147600;28;20432;-45
2022/07/06 07:04:32;;;;;;;0.85;0.40;;;;;;;38.60;23.72;102632.81;5140748;28;21013;-51
2022/07/06 07:07:05;;;;;;;1.60;0.40;;;;;;;38.64;23.59;102634.66;5140064;28;20432;-52
2022/07/06 07:09:38;;;;;;;4.95;0.30;;;;;;;38.29;23.64;102633.19;5145629;28;20470;-46
2022/07/06 07:12:11;;;;;;;2.67;0.60;;;;;;;38.26;23.72;102631.00;5141083;28;20810;-49
2022/07/06 07:14:45;;;;;;;1.15;0.32;;;;;;;38.38;23.48;102639.72;5140542;28;20435;-48
2022/07/06 07:17:18;;;;;;;2.55;0.40;;;;;;;38.50;23.30;102645.63;5141161;28;20438;-48
2022/07/06 07:19:51;;;;;;;0.90;0.43;;;;;;;38.70;23.22;102638.19;5148055;28;20426;-49
2022/07/06 07:22:24;;;;;;;3.55;0.50;;;;;;;38.64;23.17;102642.13;5125493;28;20862;-46
2022/07/06 07:24:58;;;;;;;2.80;0.50;;;;;;;38.48;23.26;102641.53;5131084;28;20442;-44
2022/07/06 07:27:31;;;;;;;1.40;0.50;;;;;;;38.27;23.44;102640.94;5144341;28;20520;-46
2022/07/06 07:30:06;;;;;;;1.20;0.30;;;;;;;38.08;23.34;102631.78;5150874;28;20771;-50
2022/07/06 07:32:40;;;;;;;1.40;0.30;;;;;;;37.93;23.70;102635.53;5154522;28;20429;-49
2022/07/06 07:35:13;;;;;;;1.45;0.50;;;;;;;37.44;23.71;102607.00;5140830;28;20417;-52
2022/07/06 07:37:45;;;;;;;1.80;0.40;;;;;;;37.25;24.05;102630.88;5148230;28;20427;-50
2022/07/06 07:40:18;;;;;;;3.08;0.50;;;;;;;36.94;24.06;102631.06;5159157;28;20430;-45
2022/07/06 07:42:51;;;;;;;2.92;0.60;;;;;;;36.87;24.11;102619.56;5155637;28;20440;-47
2022/07/06 07:45:26;;;;;;;1.42;0.50;;;;;;;36.89;24.15;102629.19;5148193;28;20746;-43
2022/07/06 07:47:58;;;;;;;1.65;0.55;;;;;;;36.77;24.34;102625.13;5142919;28;20445;-48
2022/07/06 07:50:31;;;;;;;2.25;0.50;;;;;;;36.26;24.12;102615.16;5147710;28;20429;-49
2022/07/06 07:53:04;;;;;;;3.30;0.90;;;;;;;35.77;24.63;102619.41;5154167;28;20433;-50
2022/07/06 07:55:37;;;;;;;3.43;0.73;;;;;;;35.55;24.63;102610.63;5143737;28;20798;-47
2022/07/06 07:58:10;;;;;;;2.90;1.00;;;;;;;35.59;24.87;102617.22;5147379;28;20457;-47
2022/07/06 08:00:44;;;;;;;0.80;0.60;;;;;;;35.72;24.66;102599.34;5144076;28;20521;-46
2022/07/06 08:03:17;;;;;;;2.58;0.60;;;;;;;35.83;24.62;102614.69;5139805;28;20525;-45
2022/07/06 08:05:50;;;;;;;2.03;0.70;;;;;;;35.81;24.56;102614.16;5143574;28;20425;-44
2022/07/06 08:08:23;;;;;;;3.70;0.70;;;;;;;35.81;24.51;102613.34;5140386;28;20890;-47
2022/07/06 08:10:55;;;;;;;1.20;0.70;;;;;;;35.69;24.26;102606.22;5138935;28;20441;-48
2022/07/06 08:13:31;;;;;;;5.30;1.00;;;;;;;35.54;24.43;102617.22;5147930;28;20787;-54
2022/07/06 08:16:05;;;;;;;3.42;0.60;;;;;;;35.30;24.65;102604.00;5160928;28;20450;-47
2022/07/06 08:18:38;;;;;;;0.90;0.40;;;;;;;35.06;24.64;102619.38;5158945;28;20534;-51
2022/07/06 08:21:11;;;;;;;3.10;0.70;;;;;;;34.57;24.79;102592.34;5158744;28;20440;-49
2022/07/06 08:23:44;;;;;;;2.53;0.77;;;;;;;34.40;24.96;102607.06;5167139;28;20434;-46
2022/07/06 08:26:17;;;;;;;2.20;0.77;;;;;;;34.38;24.88;102616.66;5172000;28;20415;-47
2022/07/06 08:28:50;;;;;;;2.33;0.82;;;;;;;34.09;24.74;102621.72;5174768;28;20481;-46
2022/07/06 08:31:24;;;;;;;3.47;0.80;;;;;;;33.91;25.21;102625.69;5166578;28;20837;-47
2022/07/06 08:33:57;;;;;;;1.30;0.55;;;;;;;33.71;25.16;102607.19;5161225;28;20702;-49
2022/07/06 08:36:30;;;;;;;4.10;0.75;;;;;;;33.57;24.93;102620.50;5162949;28;20783;-49
2022/07/06 08:39:03;;;;;;;2.30;0.80;;;;;;;33.45;25.08;102612.47;5158311;28;20436;-47
2022/07/06 08:41:37;;;;;;;2.53;0.73;;;;;;;33.33;25.12;102598.13;5157747;28;20507;-45
2022/07/06 08:44:10;;;;;;;1.42;0.60;;;;;;;33.17;24.91;102604.53;5166081;28;20428;-49
2022/07/06 08:46:45;;;;;;;4.60;0.68;;;;;;;33.08;24.82;102595.97;5164597;28;20778;-49
2022/07/06 08:49:19;;;;;;;3.70;0.70;;;;;;;33.08;25.08;102601.47;5165074;28;20419;-48
2022/07/06 08:51:52;;;;;;;5.13;0.80;;;;;;;33.12;24.83;102607.22;5163484;28;20494;-52
2022/07/06 08:54:25;;;;;;;4.95;1.00;;;;;;;33.12;24.52;102601.75;5163177;28;20452;-48
2022/07/06 08:56:58;;;;;;;1.87;0.70;;;;;;;33.01;24.57;102600.81;5164706;28;20422;-47
2022/07/06 08:59:32;;;;;;;7.60;1.30;;;;;;;32.93;24.67;102598.53;5161612;28;20416;-49
2022/07/06 09:02:06;;;;;;;3.83;0.93;;;;;;;32.77;24.39;102611.22;5161925;28;20456;-44
2022/07/06 09:04:41;;;;;;;3.08;1.00;;;;;;;32.55;24.42;102609.34;5158562;28;20540;-49
2022/07/06 09:07:13;;;;;;;2.80;0.93;;;;;;;32.41;24.58;102609.94;5158763;28;20440;-45
2022/07/06 09:09:46;;;;;;;2.85;0.77;;;;;;;32.12;24.41;102604.66;5157381;28;20494;-45
2022/07/06 09:12:19;;;;;;;4.70;0.93;;;;;;;31.96;24.60;102619.97;5158676;28;20431;-49
2022/07/06 09:14:53;;;;;;;6.32;0.80;;;;;;;31.81;24.60;102614.28;5158864;28;20446;-50
2022/07/06 09:17:29;;;;;;;1.42;0.50;;;;;;;31.61;24.36;102614.78;5165976;28;20422;-45
2022/07/06 09:20:02;;;;;;;2.90;0.93;;;;;;;31.42;24.46;102622.38;5166887;28;20603;-51
2022/07/06 09:22:36;;;;;;;1.75;0.80;;;;;;;31.27;24.47;102613.91;5164215;28;20433;-48
2022/07/06 09:25:11;;;;;;;0.73;0.35;;;;;;;31.15;24.49;102622.97;5152327;28;20902;-46
2022/07/06 09:27:49;;;;;;;3.67;0.50;;;;;;;30.81;24.59;102600.22;5162691;28;20415;-45
2022/07/06 09:30:23;;;;;;;1.23;0.50;;;;;;;30.87;24.52;102625.72;5160753;28;20428;-49
2022/07/06 09:32:59;;;;;;;2.55;0.68;;;;;;;30.83;24.66;102619.09;5164981;28;20425;-49
2022/07/06 09:35:37;;;;;;;1.27;0.60;;;;;;;30.77;24.75;102620.84;5169508;28;20427;-45
2022/07/06 09:38:13;;;;;;;5.32;0.50;;;;;;;30.83;24.64;102616.38;5167600;28;20428;-47
2022/07/06 09:40:48;;;;;;;0.85;0.40;;;;;;;30.84;24.66;102601.63;5166454;28;20428;-46
2022/07/06 09:43:23;;;;;;;3.92;0.50;;;;;;;30.91;24.54;102602.31;5173377;28;20475;-49
2022/07/06 09:45:58;;;;;;;2.60;0.57;;;;;;;30.91;24.56;102613.22;5161935;28;20422;-46
2022/07/06 09:48:34;;;;;;;2.03;0.50;;;;;;;30.85;24.47;102616.97;5176783;28;20415;-45
2022/07/06 09:51:07;;;;;;;1.98;0.82;;;;;;;30.79;24.65;102613.28;5171474;28;20428;-43
2022/07/06 09:53:40;;;;;;;2.60;0.87;;;;;;;30.84;24.41;102620.72;5171352;28;20428;-44
2022/07/06 09:56:13;;;;;;;2.00;0.60;;;;;;;30.89;24.50;102618.13;5169179;28;20434;-51
2022/07/06 09:58:46;;;;;;;3.17;0.80;;;;;;;30.91;24.39;102621.41;5171325;28;20434;-47
2022/07/06 10:01:29;;;;;;;1.70;0.57;;;;;;;30.80;24.61;102619.56;5174075;28;20426;-48
2022/07/06 10:04:03;;;;;;;5.85;0.63;;;;;;;30.82;24.55;102623.72;5173988;28;20889;-47
2022/07/06 10:06:36;;;;;;;2.42;0.52;;;;;;;30.85;24.43;102633.31;5173026;28;20829;-45
2022/07/06 10:09:10;;;;;;;1.40;0.40;;;;;;;30.90;24.28;102617.03;5167015;28;20502;-45
2022/07/06 10:11:48;;;;;;;3.22;0.70;;;;;;;30.86;24.46;102621.34;5164277;28;20525;-47
2022/07/06 10:14:24;;;;;;;1.35;0.45;;;;;;;30.86;24.29;102624.06;5147796;28;21010;-50
2022/07/06 10:16:58;;;;;;;1.90;0.57;;;;;;;30.78;24.34;102614.34;5146951;28;20725;-46
2022/07/06 10:19:33;;;;;;;2.22;0.40;;;;;;;30.76;24.34;102614.56;5161095;28;20489;-46
2022/07/06 10:22:06;;;;;;;1.27;0.50;;;;;;;30.84;24.32;102623.47;5153340;28;20435;-51
2022/07/06 10:24:43;;;;;;;3.03;0.45;;;;;;;30.70;24.34;102610.09;5138001;28;21065;-43
2022/07/06 10:27:17;;;;;;;4.00;0.52;;;;;;;30.66;24.09;102625.28;5141257;28;20446;-45
2022/07/06 10:29:50;;;;;;;0.90;0.32;;;;;;;30.58;24.54;102606.56;5141168;28;20573;-47
2022/07/06 10:32:24;;;;;;;2.55;0.80;;;;;;;30.54;24.48;102610.84;5133573;28;20508;-42
2022/07/06 10:34:58;;;;;;;2.30;0.60;;;;;;;30.56;24.63;102609.50;5136375;28;20869;-44
2022/07/06 10:37:32;;;;;;;2.25;0.55;;;;;;;30.60;24.64;102609.03;5129414;28;20413;-48
2022/07/06 10:43:35;;;;;;;4.15;1.00;;;;;;;30.52;24.71;102597.44;5138592;28;20417;-42
2022/07/06 10:46:11;;;;;;;2.92;0.60;;;;;;;30.45;24.78;102594.03;5132685;28;20435;-46
2022/07/06 10:48:45;;;;;;;3.05;0.60;;;;;;;30.47;24.89;102593.78;5146519;28;20787;-44
2022/07/06 10:51:27;;;;;;;3.90;0.57;;;;;;;30.38;24.94;102589.78;5147796;28;20515;-46
2022/07/06 10:54:02;;;;;;;2.75;0.52;;;;;;;30.18;25.14;102563.72;5135948;28;20475;-46
2022/07/06 10:56:38;;;;;;;2.35;0.40;;;;;;;30.29;25.11;102586.63;5143241;28;20419;-46
2022/07/06 10:59:12;;;;;;;0.85;0.47;;;;;;;30.26;25.08;102571.56;5142270;28;20480;-47
2022/07/06 11:02:16;;;;;;;0.70;0.45;;;;;;;30.36;25.20;102581.03;5143056;28;20505;-44
2022/07/06 11:04:50;;;;;;;1.58;0.60;;;;;;;30.39;25.07;102567.75;5140989;28;20422;-42
2022/07/06 11:07:26;;;;;;;4.30;0.57;;;;;;;30.49;25.17;102580.75;5143414;28;25087;-42
2022/07/06 11:10:01;;;;;;;3.53;0.57;;;;;;;30.53;25.25;102571.81;5133068;28;20420;-48
2022/07/06 11:12:37;;;;;;;3.40;0.50;;;;;;;30.62;25.17;102572.28;5145992;28;20447;-43
2022/07/06 11:15:10;;;;;;;1.27;0.50;;;;;;;30.62;25.12;102569.56;5146108;28;20425;-43
2022/07/06 11:18:10;;;;;;;3.33;0.80;;;;;;;30.57;25.14;102561.28;5147482;28;20418;-44
2022/07/06 11:21:04;;;;;;;2.95;0.98;;;;;;;30.45;25.29;102565.94;5148132;28;20887;-45
2022/07/06 11:23:37;;;;;;;5.15;1.00;;;;;;;30.26;25.46;102533.41;5143240;28;20525;-46
2022/07/06 11:26:11;;;;;;;1.38;0.50;;;;;;;30.46;25.41;102553.97;5147422;28;21026;-48
2022/07/06 11:28:48;;;;;;;2.40;0.73;;;;;;;30.47;25.41;102555.63;5143441;28;20510;-43
2022/07/06 11:31:21;;;;;;;3.20;0.80;;;;;;;30.51;25.46;102559.53;5141668;28;20463;-44
2022/07/06 11:33:54;;;;;;;2.63;0.50;;;;;;;30.50;25.58;102571.50;5142558;28;20511;-44
2022/07/06 11:36:28;;;;;;;2.42;0.65;;;;;;;30.49;25.45;102553.47;5136931;28;20864;-43
2022/07/06 11:39:01;;;;;;;2.20;0.90;;;;;;;30.29;25.56;102532.94;5140096;28;20438;-46
2022/07/06 11:41:34;;;;;;;2.75;0.68;;;;;;;30.50;25.31;102555.13;5138925;28;20958;-46
2022/07/06 11:44:07;;;;;;;2.33;0.90;;;;;;;30.40;25.26;102516.78;5146526;28;20868;-45
2022/07/06 11:46:40;;;;;;;2.78;0.68;;;;;;;30.69;25.14;102548.44;5082393;28;20435;-51
2022/07/06 11:49:13;;;;;;;5.57;0.70;;;;;;;30.63;24.91;102545.84;5142124;28;20466;-46
2022/07/06 11:51:48;;;;;;;1.50;0.75;;;;;;;30.66;24.90;102535.28;5146374;28;20437;-46
2022/07/06 11:54:23;;;;;;;5.53;0.70;;;;;;;30.72;24.74;102534.31;5142588;28;20425;-45
2022/07/06 11:56:58;;;;;;;3.08;0.43;;;;;;;30.66;25.12;102546.19;5134212;28;20790;-51
2022/07/06 11:59:35;;;;;;;1.48;0.50;;;;;;;30.53;25.00;102532.84;5136951;28;20895;-47